Aeroporto :
LOGIN :

Iscrizione | Disclaimer

   EN    FR    IT 

 










Sommario :    VFR   VFR Marginale   IFR   IFR Intensivo   IFR Molto Intensivo
Visibilità : 
Base nubi : 
>= 8 km
>= 3000ft
5 / 8 km
1000 / 3000 ft
1500m / 5 km
500 / 1000 ft
800 / 1500m
200 / 500 ft
< 800m
< 200 ft
Simboli :   Temporali  Nebbia  Neve Forte  Precipitazioni Forti  Vento > 20 kt
SIGMETs :   Varie  Temporali  Ghiacco  Turbolenza  Onda orograficha  Ceneri Vulcaniche






- Altitudine del aeroporto : 238 ft
- Codice IATA : FAB


EGLF - Farnborough

ULTIMO METAR :
  • 240620Z AUTO 22019G29KT 9999 FEW007 BKN014 10/09 Q1012 REUP REDZ

METARs OBSOLETI :
  • 240550Z AUTO 18007KT 4800 -DZ BR OVC004/// 08/07 Q1013
  • 240520Z AUTO 16010KT 5000 BR SCT007/// BKN015/// BKN020/// 07/07 Q1014 REDZ
  • 240450Z AUTO 15008KT 3900 +DZ FEW005/// BKN021/// 07/06 Q1015 RERA
  • 240420Z AUTO 14007KT 5000 DZ BKN005/// BKN011/// 06/06 Q1017 REDZ
  • 240350Z AUTO 15009KT 4000 +DZ BKN005/// BKN013/// BKN033/// 06/05 Q1017 RERA

Previsioni scadute.
ATIS : +44 09063 800 400 (*282)



MetMap, La meteo Aeronautica in un colpo d'occhio ! - Copyright ORBIFLY Dicembre 2007 - Disclaimer

ORBIFLY MET'MAP TEAM :

Programmazione e sviluppo : Alexandra Zaïnal
Concezione : Baudouin d'Aumeries
Aiuto per la programmazione : Marc-Olivier Méhu
Supporto tecnico e logistico : Manuel Goepfert
Aiuto per la traduzione : Arnaldo La Scala

Contatto : metmap@orbifly.com




FONTI E CREDITI :

   NOAA